createdAt,value
2018-05-17T00:01:09.320Z,89.70
2018-05-17T00:03:35.238Z,89.75
2018-05-17T00:06:01.142Z,89.59
2018-05-17T00:08:27.098Z,89.59
2018-05-17T00:10:53.033Z,89.59
2018-05-17T00:13:18.950Z,90.45
2018-05-17T00:15:48.712Z,90.21
2018-05-17T00:18:14.646Z,90.25
2018-05-17T00:20:40.562Z,90.40
2018-05-17T00:23:06.493Z,90.43
2018-05-17T00:25:32.401Z,89.99
2018-05-17T00:27:58.383Z,90.61
2018-05-17T00:30:24.300Z,90.39
2018-05-17T00:32:50.212Z,90.52
2018-05-17T00:35:16.153Z,90.78
2018-05-17T00:37:42.043Z,90.85
2018-05-17T00:40:07.977Z,91.35
2018-05-17T00:42:33.885Z,91.16
2018-05-17T00:44:59.816Z,91.17
2018-05-17T00:47:25.733Z,91.25
2018-05-17T00:49:51.648Z,91.23
2018-05-17T00:52:17.612Z,91.16
2018-05-17T00:54:43.511Z,91.32
2018-05-17T00:57:09.399Z,91.25
2018-05-17T00:59:35.327Z,91.08
2018-05-17T01:02:01.296Z,91.01
2018-05-17T01:04:27.217Z,91.28
2018-05-17T01:06:53.151Z,91.44
2018-05-17T01:09:19.080Z,91.10
2018-05-17T01:11:45.018Z,91.37
2018-05-17T01:14:10.950Z,91.27
2018-05-17T01:16:36.901Z,91.58
2018-05-17T01:19:02.836Z,91.30
2018-05-17T01:21:28.782Z,91.23
2018-05-17T01:23:54.686Z,91.17
2018-05-17T01:26:20.588Z,91.01
2018-05-17T01:28:46.520Z,91.35
2018-05-17T01:31:12.432Z,91.22
2018-05-17T01:33:38.364Z,90.85
2018-05-17T01:36:04.284Z,90.77
2018-05-17T01:38:30.223Z,90.86
2018-05-17T01:40:56.123Z,90.60
2018-05-17T01:43:22.040Z,90.31
2018-05-17T01:45:47.966Z,90.47
2018-05-17T01:48:13.898Z,90.30
2018-05-17T01:50:39.834Z,90.50
2018-05-17T01:53:05.756Z,90.85
2018-05-17T01:55:31.688Z,90.88
2018-05-17T01:57:57.618Z,91.62
2018-05-17T02:00:23.540Z,91.31
2018-05-17T02:02:49.470Z,92.11
2018-05-17T02:05:15.406Z,91.94
2018-05-17T02:07:41.305Z,92.41
2018-05-17T02:10:07.231Z,92.63
2018-05-17T02:12:33.149Z,92.82
2018-05-17T02:14:59.073Z,92.83
2018-05-17T02:17:24.987Z,93.18
2018-05-17T02:19:50.935Z,93.18
2018-05-17T02:22:16.875Z,93.21
2018-05-17T02:24:42.774Z,93.49
2018-05-17T02:27:08.715Z,94.12
2018-05-17T02:29:34.612Z,93.67
2018-05-17T02:32:00.545Z,94.00
2018-05-17T02:34:26.474Z,94.02
2018-05-17T02:36:52.408Z,93.97
2018-05-17T02:39:18.325Z,93.66
2018-05-17T02:41:44.269Z,93.62
2018-05-17T02:44:10.204Z,94.29
2018-05-17T02:46:36.168Z,93.48
2018-05-17T02:49:02.114Z,94.07
2018-05-17T02:51:28.021Z,93.26
2018-05-17T02:53:53.951Z,93.31
2018-05-17T02:56:19.890Z,92.97
2018-05-17T02:58:45.814Z,92.94
2018-05-17T03:01:11.726Z,92.95
2018-05-17T03:03:37.676Z,93.27
2018-05-17T03:06:03.581Z,93.27
2018-05-17T03:08:29.524Z,92.70
2018-05-17T03:10:55.425Z,93.08
2018-05-17T03:13:21.352Z,92.66
2018-05-17T03:15:47.266Z,93.10
2018-05-17T03:18:13.204Z,92.77
2018-05-17T03:20:39.147Z,93.16
2018-05-17T03:23:05.061Z,92.75
2018-05-17T03:25:30.992Z,92.71
2018-05-17T03:27:56.914Z,92.80
2018-05-17T03:30:22.845Z,92.42
2018-05-17T03:32:48.777Z,92.73
2018-05-17T03:35:14.688Z,92.38
2018-05-17T03:37:40.595Z,92.52
2018-05-17T03:40:06.529Z,91.91
2018-05-17T03:42:32.429Z,91.93
2018-05-17T03:44:58.353Z,91.59
2018-05-17T03:47:24.283Z,91.46
2018-05-17T03:49:50.203Z,91.08
2018-05-17T03:52:16.125Z,90.90
2018-05-17T03:54:42.054Z,90.68
2018-05-17T03:57:07.969Z,91.31
2018-05-17T03:59:33.891Z,91.15
2018-05-17T04:02:12.183Z,90.51
2018-05-17T04:04:50.569Z,90.31
2018-05-17T04:07:16.487Z,90.24
2018-05-17T04:09:42.397Z,90.40
2018-05-17T04:12:08.314Z,89.74
2018-05-17T04:14:34.239Z,89.89
2018-05-17T04:17:00.196Z,89.34
2018-05-17T04:19:26.108Z,89.37
2018-05-17T04:21:52.063Z,89.82
2018-05-17T04:24:18.024Z,89.61
2018-05-17T04:26:43.944Z,89.41
2018-05-17T04:29:09.890Z,89.88
2018-05-17T04:31:35.809Z,89.25
2018-05-17T04:34:01.736Z,88.68
2018-05-17T04:36:27.656Z,89.31
2018-05-17T04:38:53.613Z,89.53
2018-05-17T04:41:19.541Z,88.95
2018-05-17T04:43:45.463Z,88.59
2018-05-17T04:46:11.391Z,88.44
2018-05-17T04:48:37.316Z,88.44
2018-05-17T04:51:03.265Z,88.84
2018-05-17T04:53:29.167Z,88.40
2018-05-17T04:55:55.106Z,88.45
2018-05-17T04:58:21.027Z,87.99
2018-05-17T05:00:46.955Z,87.70
2018-05-17T05:03:12.873Z,87.47
2018-05-17T05:05:38.804Z,86.90
2018-05-17T05:08:04.749Z,87.17
2018-05-17T05:10:30.659Z,86.73
2018-05-17T05:12:56.589Z,87.06
2018-05-17T05:15:22.502Z,86.42
2018-05-17T05:17:48.443Z,86.92
2018-05-17T05:20:14.377Z,85.98
2018-05-17T05:22:40.293Z,85.75
2018-05-17T05:25:06.212Z,86.08
2018-05-17T05:27:32.168Z,85.90
2018-05-17T05:29:58.088Z,85.57
2018-05-17T05:32:24.049Z,85.66
2018-05-17T05:34:49.986Z,85.44
2018-05-17T05:37:15.894Z,85.34
2018-05-17T05:39:41.814Z,84.81
2018-05-17T05:42:07.735Z,85.06
2018-05-17T05:44:33.681Z,85.33
2018-05-17T05:46:59.619Z,84.95
2018-05-17T05:49:25.579Z,85.13
2018-05-17T05:51:51.459Z,84.69
2018-05-17T05:54:17.394Z,84.87
2018-05-17T05:56:43.319Z,84.58
2018-05-17T05:59:09.248Z,85.37
2018-05-17T06:01:35.202Z,84.84
2018-05-17T06:04:01.137Z,85.06
2018-05-17T06:06:27.094Z,84.18
2018-05-17T06:08:53.003Z,84.88
2018-05-17T06:11:18.937Z,83.85
2018-05-17T06:13:44.866Z,83.21
2018-05-17T06:16:10.801Z,82.91
2018-05-17T06:18:36.717Z,82.84
2018-05-17T06:21:02.686Z,82.53
2018-05-17T06:23:28.592Z,82.66
2018-05-17T06:25:54.517Z,83.19
2018-05-17T06:28:20.425Z,83.32
2018-05-17T06:30:46.346Z,82.32
2018-05-17T06:33:12.293Z,82.48
2018-05-17T06:35:38.193Z,82.38
2018-05-17T06:38:04.131Z,82.24
2018-05-17T06:40:30.049Z,82.60
2018-05-17T06:42:55.991Z,82.80
2018-05-17T06:45:21.917Z,82.42
2018-05-17T06:47:47.875Z,82.00
2018-05-17T06:50:13.808Z,82.08
2018-05-17T06:52:39.727Z,82.51
2018-05-17T06:55:05.655Z,82.37
2018-05-17T06:57:31.581Z,81.80
2018-05-17T06:59:57.507Z,82.43
2018-05-17T07:02:23.432Z,81.96
2018-05-17T07:04:49.358Z,81.61
2018-05-17T07:07:15.273Z,81.59
2018-05-17T07:09:41.197Z,81.38
2018-05-17T07:12:07.136Z,81.65
2018-05-17T07:14:33.041Z,81.48
2018-05-17T07:16:58.951Z,81.24
2018-05-17T07:19:24.857Z,80.38
2018-05-17T07:21:50.808Z,80.55
2018-05-17T07:24:16.734Z,80.11
2018-05-17T07:26:42.674Z,79.97
2018-05-17T07:29:08.591Z,79.41
2018-05-17T07:31:34.540Z,79.70
2018-05-17T07:34:00.481Z,79.62
2018-05-17T07:36:26.438Z,79.28
2018-05-17T07:38:52.412Z,80.41
2018-05-17T07:41:18.346Z,80.28
2018-05-17T07:43:44.302Z,79.17
2018-05-17T07:46:10.223Z,78.34
2018-05-17T07:48:36.167Z,78.40
2018-05-17T07:51:02.063Z,78.18
2018-05-17T07:53:28.001Z,77.47
2018-05-17T07:55:53.925Z,77.61
2018-05-17T07:58:19.880Z,76.86
2018-05-17T08:00:45.814Z,76.75
2018-05-17T08:03:11.753Z,76.46
2018-05-17T08:05:37.669Z,77.05
2018-05-17T08:08:03.629Z,77.07
2018-05-17T08:10:29.549Z,76.23
2018-05-17T08:12:55.457Z,76.31
2018-05-17T08:15:21.378Z,76.00
2018-05-17T08:17:47.302Z,76.56
2018-05-17T08:20:13.242Z,76.65
2018-05-17T08:22:39.190Z,76.01
2018-05-17T08:25:05.124Z,75.68
2018-05-17T08:27:31.067Z,76.11
2018-05-17T08:29:56.982Z,75.65
2018-05-17T08:32:22.895Z,75.04
2018-05-17T08:34:48.867Z,75.42
2018-05-17T08:37:14.802Z,74.78
2018-05-17T08:39:40.714Z,74.82
2018-05-17T08:42:06.643Z,74.66
2018-05-17T08:44:32.574Z,73.96
2018-05-17T08:46:58.498Z,74.23
2018-05-17T08:49:24.430Z,73.72
2018-05-17T08:51:50.392Z,74.26
2018-05-17T08:54:16.325Z,72.95
2018-05-17T08:56:42.266Z,73.19
2018-05-17T08:59:08.187Z,73.77
2018-05-17T09:01:34.089Z,72.95
2018-05-17T09:04:00.043Z,72.64
2018-05-17T09:06:25.942Z,72.36
2018-05-17T09:08:51.873Z,71.60
2018-05-17T09:11:17.780Z,72.15
2018-05-17T09:13:43.715Z,72.11
2018-05-17T09:16:10.041Z,72.61
2018-05-17T09:18:36.148Z,73.91
2018-05-17T09:21:02.078Z,73.29
2018-05-17T09:23:28.008Z,73.22
2018-05-17T09:25:53.949Z,72.89
2018-05-17T09:28:19.885Z,72.84
2018-05-17T09:30:45.809Z,72.65
2018-05-17T09:33:11.743Z,72.98
2018-05-17T09:35:37.720Z,72.42
2018-05-17T09:38:03.705Z,72.35
2018-05-17T09:40:29.653Z,72.48
2018-05-17T09:42:55.571Z,72.09
2018-05-17T09:45:21.475Z,72.10
2018-05-17T09:47:47.397Z,71.20
2018-05-17T09:50:13.321Z,72.36
2018-05-17T09:52:39.277Z,71.22
2018-05-17T09:55:05.241Z,71.20
2018-05-17T09:57:31.137Z,71.28
2018-05-17T09:59:57.039Z,71.27
2018-05-17T10:02:22.996Z,71.32
2018-05-17T10:04:48.935Z,71.04
2018-05-17T10:07:14.884Z,71.00
2018-05-17T10:09:40.801Z,71.18
2018-05-17T10:12:06.728Z,71.65
2018-05-17T10:14:32.710Z,70.46
2018-05-17T10:16:58.627Z,69.46
2018-05-17T10:19:24.566Z,69.44
2018-05-17T10:21:50.489Z,69.20
2018-05-17T10:24:16.432Z,71.26
2018-05-17T10:26:42.358Z,69.79
2018-05-17T10:29:08.306Z,68.27
2018-05-17T10:31:34.242Z,69.04
2018-05-17T10:34:00.198Z,68.62
2018-05-17T10:36:26.100Z,68.95
2018-05-17T10:38:52.003Z,67.93
2018-05-17T10:41:17.936Z,68.88
2018-05-17T10:43:43.870Z,67.76
2018-05-17T10:46:09.830Z,68.60
2018-05-17T10:48:35.758Z,67.99
2018-05-17T10:51:01.702Z,67.18
2018-05-17T10:53:27.620Z,66.97
2018-05-17T10:55:53.558Z,66.72
2018-05-17T10:58:19.467Z,67.10
2018-05-17T11:00:45.408Z,66.23
2018-05-17T11:03:11.343Z,65.54
2018-05-17T11:05:37.288Z,66.00
2018-05-17T11:08:03.241Z,65.93
2018-05-17T11:10:29.146Z,65.18
2018-05-17T11:12:55.081Z,63.95
2018-05-17T11:15:21.004Z,62.93
2018-05-17T11:17:46.945Z,62.47
2018-05-17T11:20:12.871Z,62.82
2018-05-17T11:22:38.815Z,60.31
2018-05-17T11:25:04.800Z,60.20
2018-05-17T11:27:31.320Z,60.22
2018-05-17T11:29:57.274Z,59.70
2018-05-17T11:32:23.209Z,59.15
2018-05-17T11:34:49.146Z,57.68
2018-05-17T11:37:15.088Z,56.58
2018-05-17T11:39:41.058Z,57.29
2018-05-17T11:42:07.001Z,57.09
2018-05-17T11:44:32.972Z,56.50
2018-05-17T11:46:58.913Z,56.56
2018-05-17T11:49:24.856Z,55.47
2018-05-17T11:51:50.762Z,53.44
2018-05-17T11:54:16.684Z,53.43
2018-05-17T11:56:42.600Z,53.07
2018-05-17T11:59:08.564Z,52.81
2018-05-17T12:01:34.606Z,53.47
2018-05-17T12:04:00.472Z,52.13
2018-05-17T12:06:26.900Z,51.91
2018-05-17T12:08:52.812Z,51.05
2018-05-17T12:11:18.772Z,51.96
2018-05-17T12:13:44.686Z,51.69
2018-05-17T12:16:10.621Z,51.92
2018-05-17T12:18:36.560Z,50.69
2018-05-17T12:21:02.534Z,50.51
2018-05-17T12:23:28.467Z,49.96
2018-05-17T12:25:54.412Z,49.34
2018-05-17T12:28:20.321Z,48.27
2018-05-17T12:30:46.238Z,48.91
2018-05-17T12:33:12.148Z,47.06
2018-05-17T12:35:38.105Z,47.71
2018-05-17T12:38:04.039Z,47.79
2018-05-17T12:40:29.976Z,48.66
2018-05-17T12:42:56.035Z,48.75
2018-05-17T12:45:21.855Z,48.37
2018-05-17T12:47:47.813Z,48.12
2018-05-17T12:50:13.751Z,47.23
2018-05-17T12:52:39.681Z,47.87
2018-05-17T12:55:05.606Z,46.68
2018-05-17T12:57:31.525Z,46.94
2018-05-17T12:59:58.619Z,47.77
2018-05-17T13:02:24.544Z,46.26
2018-05-17T13:04:50.487Z,47.57
2018-05-17T13:07:16.407Z,47.64
2018-05-17T13:09:42.347Z,47.26
2018-05-17T13:12:08.229Z,46.44
2018-05-17T13:14:34.169Z,47.81
2018-05-17T13:17:00.105Z,47.64
2018-05-17T13:19:26.040Z,46.20
2018-05-17T13:21:51.964Z,46.76
2018-05-17T13:24:17.895Z,46.13
2018-05-17T13:26:43.834Z,46.14
2018-05-17T13:29:09.765Z,45.28
2018-05-17T13:31:35.713Z,44.42
2018-05-17T13:34:01.621Z,44.54
2018-05-17T13:36:27.586Z,44.57
2018-05-17T13:38:53.498Z,44.01
2018-05-17T13:41:19.452Z,44.93
2018-05-17T13:43:45.370Z,45.56
2018-05-17T13:46:11.272Z,45.34
2018-05-17T13:48:37.221Z,44.74
2018-05-17T13:51:03.141Z,44.57
2018-05-17T13:53:29.100Z,43.48
2018-05-17T13:55:55.034Z,43.96
2018-05-17T13:58:21.010Z,45.56
2018-05-17T14:00:46.925Z,43.86
2018-05-17T14:03:12.856Z,43.84
2018-05-17T14:05:38.767Z,43.10
2018-05-17T14:08:04.690Z,43.69
2018-05-17T14:10:30.633Z,44.12
2018-05-17T14:12:56.569Z,44.79
2018-05-17T14:15:22.561Z,43.06
2018-05-17T14:17:48.455Z,43.12
2018-05-17T14:20:14.389Z,42.79
2018-05-17T14:22:40.345Z,42.54
2018-05-17T14:25:06.295Z,43.03
2018-05-17T14:27:32.249Z,42.68
2018-05-17T14:29:58.192Z,43.28
2018-05-17T14:32:24.133Z,42.48
2018-05-17T14:34:50.078Z,42.40
2018-05-17T14:37:16.013Z,41.99
2018-05-17T14:39:41.962Z,42.06
2018-05-17T14:42:07.886Z,42.22
2018-05-17T14:44:33.798Z,41.87
2018-05-17T14:46:59.757Z,41.28
2018-05-17T14:49:25.745Z,42.39
2018-05-17T14:51:51.668Z,41.67
2018-05-17T14:54:17.583Z,41.73
2018-05-17T14:56:43.527Z,41.31
2018-05-17T14:59:09.452Z,41.96
2018-05-17T15:01:35.413Z,41.46
2018-05-17T15:04:01.362Z,42.23
2018-05-17T15:06:27.330Z,41.91
2018-05-17T15:08:53.289Z,41.76
2018-05-17T15:11:19.260Z,42.20
2018-05-17T15:13:45.152Z,41.68
2018-05-17T15:16:11.068Z,41.84
2018-05-17T15:18:37.000Z,41.78
2018-05-17T15:21:02.924Z,41.86
2018-05-17T15:23:28.868Z,41.37
2018-05-17T15:25:54.794Z,40.93
2018-05-17T15:28:20.733Z,40.15
2018-05-17T15:30:46.667Z,39.17
2018-05-17T15:33:12.605Z,38.78
2018-05-17T15:35:38.567Z,39.69
2018-05-17T15:38:04.521Z,39.07
2018-05-17T15:40:30.443Z,39.86
2018-05-17T15:42:56.383Z,39.39
2018-05-17T15:45:22.321Z,39.54
2018-05-17T15:47:48.257Z,40.07
2018-05-17T15:50:14.197Z,39.93
2018-05-17T15:52:40.131Z,40.53
2018-05-17T15:55:06.054Z,39.73
2018-05-17T15:57:31.990Z,38.63
2018-05-17T15:59:57.939Z,38.80
2018-05-17T16:02:23.895Z,38.98
2018-05-17T16:04:49.819Z,39.37
2018-05-17T16:07:15.770Z,38.68
2018-05-17T16:09:41.691Z,40.80
2018-05-17T16:12:07.627Z,41.80
2018-05-17T16:14:33.663Z,41.79
2018-05-17T16:16:59.560Z,42.36
2018-05-17T16:19:25.506Z,40.71
2018-05-17T16:21:51.434Z,41.75
2018-05-17T16:24:17.416Z,41.64
2018-05-17T16:26:43.320Z,39.92
2018-05-17T16:29:09.271Z,39.58
2018-05-17T16:31:35.221Z,41.90
2018-05-17T16:34:01.170Z,47.01
2018-05-17T16:36:27.116Z,45.42
2018-05-17T16:38:53.104Z,46.06
2018-05-17T16:41:19.069Z,47.34
2018-05-17T16:43:45.049Z,48.10
2018-05-17T16:46:11.008Z,46.60
2018-05-17T16:48:37.002Z,50.14
2018-05-17T16:51:02.905Z,54.11
2018-05-17T16:53:28.821Z,54.72
2018-05-17T16:55:54.773Z,54.58
2018-05-17T16:58:21.020Z,55.08
2018-05-17T17:00:46.731Z,56.33
2018-05-17T17:03:12.736Z,56.33
2018-05-17T17:05:38.694Z,56.08
2018-05-17T17:08:04.615Z,54.80
2018-05-17T17:10:30.582Z,54.74
2018-05-17T17:12:56.553Z,55.54
2018-05-17T17:15:22.492Z,57.28
2018-05-17T17:17:48.501Z,58.67
2018-05-17T17:20:14.461Z,59.21
2018-05-17T17:22:40.470Z,60.41
2018-05-17T17:25:06.434Z,62.09
2018-05-17T17:27:32.395Z,62.33
2018-05-17T17:29:58.330Z,62.65
2018-05-17T17:32:24.294Z,62.98
2018-05-17T17:34:50.234Z,62.84
2018-05-17T17:37:16.232Z,62.58
2018-05-17T17:39:42.203Z,63.26
2018-05-17T17:42:08.189Z,63.94
2018-05-17T17:44:34.109Z,65.19
2018-05-17T17:47:00.060Z,66.05
2018-05-17T17:49:26.096Z,66.45
2018-05-17T17:51:52.930Z,65.82
2018-05-17T17:54:19.234Z,66.05
2018-05-17T17:56:45.216Z,65.52
2018-05-17T17:59:11.194Z,65.31
2018-05-17T18:01:37.178Z,66.43
2018-05-17T18:04:04.040Z,67.31
2018-05-17T18:06:30.127Z,67.36
2018-05-17T18:08:56.174Z,66.48
2018-05-17T18:11:22.186Z,66.60
2018-05-17T18:13:48.147Z,66.28
2018-05-17T18:16:14.148Z,66.75
2018-05-17T18:18:40.115Z,67.36
2018-05-17T18:21:07.035Z,67.31
2018-05-17T18:23:33.982Z,68.07
2018-05-17T18:26:00.071Z,68.14
2018-05-17T18:28:26.115Z,68.31
2018-05-17T18:30:52.095Z,68.41
2018-05-17T18:33:18.083Z,69.21
2018-05-17T18:35:45.075Z,69.68
2018-05-17T18:38:11.350Z,69.43
2018-05-17T18:40:37.332Z,69.70
2018-05-17T18:43:03.312Z,69.87
2018-05-17T18:45:29.261Z,69.53
2018-05-17T18:47:55.281Z,69.74
2018-05-17T18:50:21.237Z,69.88
2018-05-17T18:52:47.285Z,69.94
2018-05-17T18:55:13.329Z,69.93
2018-05-17T18:57:39.312Z,69.90
2018-05-17T19:00:05.308Z,69.97
2018-05-17T19:02:32.270Z,71.06
2018-05-17T19:04:58.248Z,71.93
2018-05-17T19:07:25.072Z,71.56
2018-05-17T19:09:51.942Z,72.49
2018-05-17T19:12:18.156Z,72.39
2018-05-17T19:14:44.542Z,72.78
2018-05-17T19:17:10.535Z,72.95
2018-05-17T19:19:36.532Z,72.64
2018-05-17T19:22:03.553Z,72.56
2018-05-17T19:24:29.606Z,73.01
2018-05-17T19:26:55.616Z,73.08
2018-05-17T19:29:21.916Z,72.35
2018-05-17T19:31:49.545Z,72.26
2018-05-17T19:34:20.067Z,72.64
2018-05-17T19:36:47.357Z,72.77
2018-05-17T19:39:14.125Z,73.17
2018-05-17T19:41:40.402Z,73.34
2018-05-17T19:44:06.479Z,73.23
2018-05-17T19:46:32.503Z,73.46
2018-05-17T19:48:58.427Z,73.70
2018-05-17T19:51:25.344Z,73.57
2018-05-17T19:53:52.143Z,73.61
2018-05-17T19:56:18.091Z,73.27
2018-05-17T19:58:44.067Z,72.92
2018-05-17T20:01:10.084Z,73.62
2018-05-17T20:03:36.090Z,73.69
2018-05-17T20:06:02.010Z,73.64
2018-05-17T20:08:28.863Z,73.77
2018-05-17T20:10:54.914Z,73.80
2018-05-17T20:13:20.868Z,73.99
2018-05-17T20:15:47.499Z,74.10
2018-05-17T20:18:14.451Z,73.78
2018-05-17T20:20:41.263Z,73.55
2018-05-17T20:23:07.178Z,73.92
2018-05-17T20:25:33.215Z,73.62
2018-05-17T20:27:59.243Z,73.42
2018-05-17T20:30:25.245Z,73.46
2018-05-17T20:32:51.204Z,73.62
2018-05-17T20:35:17.133Z,74.05
2018-05-17T20:37:43.120Z,74.46
2018-05-17T20:40:09.071Z,74.59
2018-05-17T20:42:35.967Z,74.97
2018-05-17T20:45:01.908Z,75.22
2018-05-17T20:47:27.855Z,75.57
2018-05-17T20:49:53.811Z,75.55
2018-05-17T20:52:19.782Z,75.78
2018-05-17T20:54:45.736Z,75.43
2018-05-17T20:57:11.663Z,75.22
2018-05-17T20:59:37.592Z,75.13
2018-05-17T21:02:03.582Z,74.96
2018-05-17T21:04:29.546Z,75.45
2018-05-17T21:06:55.518Z,75.72
2018-05-17T21:09:21.432Z,75.82
2018-05-17T21:11:47.354Z,76.29
2018-05-17T21:14:13.348Z,76.13
2018-05-17T21:16:39.336Z,76.18
2018-05-17T21:19:05.286Z,75.91
2018-05-17T21:21:31.301Z,76.06
2018-05-17T21:23:57.233Z,76.03
2018-05-17T21:26:23.216Z,75.80
2018-05-17T21:28:49.123Z,76.06
2018-05-17T21:31:15.055Z,76.00
2018-05-17T21:33:41.001Z,75.81
2018-05-17T21:36:06.959Z,75.90
2018-05-17T21:38:32.910Z,75.69
2018-05-17T21:40:58.845Z,75.98
2018-05-17T21:43:24.801Z,75.77
2018-05-17T21:45:50.758Z,76.28
2018-05-17T21:48:16.764Z,76.13
2018-05-17T21:50:42.717Z,76.27
2018-05-17T21:53:08.702Z,76.10
2018-05-17T21:55:34.641Z,75.81
2018-05-17T21:58:00.607Z,75.60
2018-05-17T22:00:26.553Z,75.32
2018-05-17T22:02:52.473Z,75.30
2018-05-17T22:05:18.432Z,75.16
2018-05-17T22:07:44.354Z,75.56
2018-05-17T22:10:10.288Z,75.76
2018-05-17T22:12:36.256Z,76.01
2018-05-17T22:15:02.264Z,76.21
2018-05-17T22:17:28.188Z,76.55
2018-05-17T22:19:54.125Z,76.54
2018-05-17T22:22:20.058Z,76.58
2018-05-17T22:24:46.014Z,77.43
2018-05-17T22:27:11.945Z,77.38
2018-05-17T22:29:37.860Z,77.46
2018-05-17T22:32:03.784Z,77.21
2018-05-17T22:34:29.720Z,76.99
2018-05-17T22:36:55.645Z,77.23
2018-05-17T22:39:21.570Z,77.32
2018-05-17T22:41:47.488Z,77.58
2018-05-17T22:44:13.421Z,77.52
2018-05-17T22:46:39.352Z,77.47
2018-05-17T22:49:06.129Z,77.79
2018-05-17T22:51:32.055Z,77.57
2018-05-17T22:53:58.015Z,77.47
2018-05-17T22:56:36.222Z,77.76
2018-05-17T22:59:02.130Z,77.57
2018-05-17T23:01:28.047Z,78.02
2018-05-17T23:03:53.972Z,77.76
2018-05-17T23:06:19.881Z,77.42
2018-05-17T23:08:45.821Z,77.43
2018-05-17T23:11:11.782Z,77.43
2018-05-17T23:13:37.701Z,78.04
2018-05-17T23:16:03.645Z,77.95
2018-05-17T23:18:29.560Z,78.30
2018-05-17T23:20:55.501Z,78.33
2018-05-17T23:23:21.441Z,78.42
2018-05-17T23:25:47.346Z,78.11
2018-05-17T23:28:13.272Z,78.05
2018-05-17T23:30:39.224Z,78.04
2018-05-17T23:33:05.168Z,78.35
2018-05-17T23:35:31.102Z,78.03
2018-05-17T23:37:57.037Z,77.94
2018-05-17T23:40:35.236Z,78.63
2018-05-17T23:43:01.176Z,79.52
2018-05-17T23:45:27.101Z,79.84
2018-05-17T23:47:53.043Z,79.70
2018-05-17T23:50:18.979Z,79.76
2018-05-17T23:52:44.928Z,79.65
2018-05-17T23:55:10.868Z,79.40
2018-05-17T23:57:36.788Z,79.70
